sensor_id;sensor_type;location;lat;lon;timestamp;P1;durP1;ratioP1;P2;durP2;ratioP2
31770;SDS011;18343;50.152;8.182;2022-07-04T00:01:57;5.20;;;1.70;;
31770;SDS011;18343;50.152;8.182;2022-07-04T00:04:30;3.97;;;1.50;;
31770;SDS011;18343;50.152;8.182;2022-07-04T00:06:58;6.38;;;1.67;;
31770;SDS011;18343;50.152;8.182;2022-07-04T00:09:26;3.30;;;1.70;;
31770;SDS011;18343;50.152;8.182;2022-07-04T00:11:54;4.72;;;1.63;;
31770;SDS011;18343;50.152;8.182;2022-07-04T00:14:21;2.90;;;1.88;;
31770;SDS011;18343;50.152;8.182;2022-07-04T00:16:50;10.18;;;2.08;;
31770;SDS011;18343;50.152;8.182;2022-07-04T00:19:17;3.00;;;1.42;;
31770;SDS011;18343;50.152;8.182;2022-07-04T00:21:45;4.63;;;1.60;;
31770;SDS011;18343;50.152;8.182;2022-07-04T00:24:12;3.17;;;1.50;;
31770;SDS011;18343;50.152;8.182;2022-07-04T00:26:41;5.85;;;1.70;;
31770;SDS011;18343;50.152;8.182;2022-07-04T00:29:09;3.38;;;1.80;;
31770;SDS011;18343;50.152;8.182;2022-07-04T00:31:36;7.13;;;1.52;;
31770;SDS011;18343;50.152;8.182;2022-07-04T00:34:04;4.07;;;1.77;;
31770;SDS011;18343;50.152;8.182;2022-07-04T00:36:31;3.03;;;1.20;;
31770;SDS011;18343;50.152;8.182;2022-07-04T00:38:59;6.07;;;1.50;;
31770;SDS011;18343;50.152;8.182;2022-07-04T00:41:26;2.42;;;2.00;;
31770;SDS011;18343;50.152;8.182;2022-07-04T00:44:01;2.17;;;1.50;;
31770;SDS011;18343;50.152;8.182;2022-07-04T00:46:37;1.30;;;1.20;;
31770;SDS011;18343;50.152;8.182;2022-07-04T00:49:06;3.42;;;1.73;;
31770;SDS011;18343;50.152;8.182;2022-07-04T00:51:34;5.72;;;1.67;;
31770;SDS011;18343;50.152;8.182;2022-07-04T00:54:03;8.18;;;1.73;;
31770;SDS011;18343;50.152;8.182;2022-07-04T00:56:34;4.85;;;1.85;;
31770;SDS011;18343;50.152;8.182;2022-07-04T00:59:05;3.92;;;1.70;;
31770;SDS011;18343;50.152;8.182;2022-07-04T01:01:33;4.95;;;1.90;;
31770;SDS011;18343;50.152;8.182;2022-07-04T01:04:01;5.40;;;1.85;;
31770;SDS011;18343;50.152;8.182;2022-07-04T01:06:30;3.47;;;1.83;;
31770;SDS011;18343;50.152;8.182;2022-07-04T01:09:00;4.03;;;1.85;;
31770;SDS011;18343;50.152;8.182;2022-07-04T01:11:28;2.58;;;1.67;;
31770;SDS011;18343;50.152;8.182;2022-07-04T01:13:56;3.17;;;1.70;;
31770;SDS011;18343;50.152;8.182;2022-07-04T01:16:25;7.68;;;2.00;;
31770;SDS011;18343;50.152;8.182;2022-07-04T01:18:53;3.85;;;1.80;;
31770;SDS011;18343;50.152;8.182;2022-07-04T01:21:29;4.60;;;1.85;;
31770;SDS011;18343;50.152;8.182;2022-07-04T01:23:57;7.55;;;2.35;;
31770;SDS011;18343;50.152;8.182;2022-07-04T01:26:27;10.70;;;2.13;;
31770;SDS011;18343;50.152;8.182;2022-07-04T01:28:56;2.40;;;1.88;;
31770;SDS011;18343;50.152;8.182;2022-07-04T01:31:23;4.95;;;2.22;;
31770;SDS011;18343;50.152;8.182;2022-07-04T01:33:51;3.90;;;1.90;;
31770;SDS011;18343;50.152;8.182;2022-07-04T01:36:18;4.55;;;2.13;;
31770;SDS011;18343;50.152;8.182;2022-07-04T01:38:47;3.20;;;2.00;;
31770;SDS011;18343;50.152;8.182;2022-07-04T01:41:14;4.18;;;2.50;;
31770;SDS011;18343;50.152;8.182;2022-07-04T01:43:44;5.10;;;2.42;;
31770;SDS011;18343;50.152;8.182;2022-07-04T01:46:12;12.05;;;2.47;;
31770;SDS011;18343;50.152;8.182;2022-07-04T01:48:39;3.92;;;2.42;;
31770;SDS011;18343;50.152;8.182;2022-07-04T01:51:07;7.15;;;2.28;;
31770;SDS011;18343;50.152;8.182;2022-07-04T01:53:35;6.10;;;2.75;;
31770;SDS011;18343;50.152;8.182;2022-07-04T01:56:05;5.80;;;2.70;;
31770;SDS011;18343;50.152;8.182;2022-07-04T01:58:33;3.38;;;2.47;;
31770;SDS011;18343;50.152;8.182;2022-07-04T02:01:01;4.35;;;2.47;;
31770;SDS011;18343;50.152;8.182;2022-07-04T02:03:45;7.50;;;2.17;;
31770;SDS011;18343;50.152;8.182;2022-07-04T02:06:13;4.28;;;1.88;;
31770;SDS011;18343;50.152;8.182;2022-07-04T02:08:40;6.30;;;2.08;;
31770;SDS011;18343;50.152;8.182;2022-07-04T02:11:26;2.65;;;2.15;;
31770;SDS011;18343;50.152;8.182;2022-07-04T02:14:14;2.85;;;1.98;;
31770;SDS011;18343;50.152;8.182;2022-07-04T02:16:40;5.25;;;2.30;;
31770;SDS011;18343;50.152;8.182;2022-07-04T02:19:07;2.85;;;2.30;;
31770;SDS011;18343;50.152;8.182;2022-07-04T02:21:34;7.20;;;2.40;;
31770;SDS011;18343;50.152;8.182;2022-07-04T02:24:02;2.83;;;1.95;;
31770;SDS011;18343;50.152;8.182;2022-07-04T02:26:31;2.75;;;2.08;;
31770;SDS011;18343;50.152;8.182;2022-07-04T02:28:59;3.88;;;2.17;;
31770;SDS011;18343;50.152;8.182;2022-07-04T02:31:26;3.28;;;2.33;;
31770;SDS011;18343;50.152;8.182;2022-07-04T02:33:53;2.92;;;2.28;;
31770;SDS011;18343;50.152;8.182;2022-07-04T02:36:21;6.55;;;2.80;;
31770;SDS011;18343;50.152;8.182;2022-07-04T02:38:48;7.32;;;2.97;;
31770;SDS011;18343;50.152;8.182;2022-07-04T02:41:15;6.80;;;2.45;;
31770;SDS011;18343;50.152;8.182;2022-07-04T02:43:44;3.13;;;2.47;;
31770;SDS011;18343;50.152;8.182;2022-07-04T02:46:11;4.72;;;2.53;;
31770;SDS011;18343;50.152;8.182;2022-07-04T02:48:40;6.50;;;2.65;;
31770;SDS011;18343;50.152;8.182;2022-07-04T02:51:07;7.53;;;3.03;;
31770;SDS011;18343;50.152;8.182;2022-07-04T02:53:34;6.43;;;2.97;;
31770;SDS011;18343;50.152;8.182;2022-07-04T02:56:02;7.22;;;2.83;;
31770;SDS011;18343;50.152;8.182;2022-07-04T02:58:30;2.92;;;2.08;;
31770;SDS011;18343;50.152;8.182;2022-07-04T03:00:59;8.20;;;2.67;;
31770;SDS011;18343;50.152;8.182;2022-07-04T03:03:27;7.93;;;3.20;;
31770;SDS011;18343;50.152;8.182;2022-07-04T03:05:54;6.28;;;2.67;;
31770;SDS011;18343;50.152;8.182;2022-07-04T03:08:21;11.02;;;3.00;;
31770;SDS011;18343;50.152;8.182;2022-07-04T03:10:49;6.15;;;4.45;;
31770;SDS011;18343;50.152;8.182;2022-07-04T03:13:17;6.85;;;3.63;;
31770;SDS011;18343;50.152;8.182;2022-07-04T03:15:45;8.50;;;3.20;;
31770;SDS011;18343;50.152;8.182;2022-07-04T03:18:14;3.78;;;2.67;;
31770;SDS011;18343;50.152;8.182;2022-07-04T03:20:41;10.35;;;3.17;;
31770;SDS011;18343;50.152;8.182;2022-07-04T03:23:09;6.15;;;2.78;;
31770;SDS011;18343;50.152;8.182;2022-07-04T03:25:39;7.45;;;3.00;;
31770;SDS011;18343;50.152;8.182;2022-07-04T03:28:06;5.88;;;2.80;;
31770;SDS011;18343;50.152;8.182;2022-07-04T03:30:34;5.28;;;2.90;;
31770;SDS011;18343;50.152;8.182;2022-07-04T03:33:02;7.80;;;3.25;;
31770;SDS011;18343;50.152;8.182;2022-07-04T03:35:34;8.40;;;3.30;;
31770;SDS011;18343;50.152;8.182;2022-07-04T03:38:01;4.60;;;2.83;;
31770;SDS011;18343;50.152;8.182;2022-07-04T03:40:29;7.28;;;2.92;;
31770;SDS011;18343;50.152;8.182;2022-07-04T03:42:57;8.13;;;3.00;;
31770;SDS011;18343;50.152;8.182;2022-07-04T03:45:25;4.93;;;2.75;;
31770;SDS011;18343;50.152;8.182;2022-07-04T03:47:53;5.38;;;2.70;;
31770;SDS011;18343;50.152;8.182;2022-07-04T03:50:21;6.35;;;2.45;;
31770;SDS011;18343;50.152;8.182;2022-07-04T03:52:52;3.10;;;2.42;;
31770;SDS011;18343;50.152;8.182;2022-07-04T03:55:19;5.47;;;2.40;;
31770;SDS011;18343;50.152;8.182;2022-07-04T03:57:46;6.20;;;3.05;;
31770;SDS011;18343;50.152;8.182;2022-07-04T04:00:14;9.30;;;3.03;;
31770;SDS011;18343;50.152;8.182;2022-07-04T04:02:42;3.65;;;2.50;;
31770;SDS011;18343;50.152;8.182;2022-07-04T04:05:09;6.47;;;2.70;;
31770;SDS011;18343;50.152;8.182;2022-07-04T04:07:57;8.40;;;2.95;;
31770;SDS011;18343;50.152;8.182;2022-07-04T04:10:26;7.75;;;3.20;;
31770;SDS011;18343;50.152;8.182;2022-07-04T04:12:56;7.72;;;3.00;;
31770;SDS011;18343;50.152;8.182;2022-07-04T04:15:24;5.03;;;2.63;;
31770;SDS011;18343;50.152;8.182;2022-07-04T04:17:51;4.18;;;2.72;;
31770;SDS011;18343;50.152;8.182;2022-07-04T04:20:20;6.50;;;2.80;;
31770;SDS011;18343;50.152;8.182;2022-07-04T04:22:48;11.00;;;3.22;;
31770;SDS011;18343;50.152;8.182;2022-07-04T04:25:20;7.13;;;4.18;;
31770;SDS011;18343;50.152;8.182;2022-07-04T04:27:47;15.43;;;4.38;;
31770;SDS011;18343;50.152;8.182;2022-07-04T04:30:15;10.52;;;3.22;;
31770;SDS011;18343;50.152;8.182;2022-07-04T04:32:43;10.32;;;3.30;;
31770;SDS011;18343;50.152;8.182;2022-07-04T04:35:10;7.80;;;3.90;;
31770;SDS011;18343;50.152;8.182;2022-07-04T04:37:37;4.07;;;3.60;;
31770;SDS011;18343;50.152;8.182;2022-07-04T04:40:05;11.45;;;3.63;;
31770;SDS011;18343;50.152;8.182;2022-07-04T04:42:35;8.05;;;3.22;;
31770;SDS011;18343;50.152;8.182;2022-07-04T04:45:04;7.13;;;3.80;;
31770;SDS011;18343;50.152;8.182;2022-07-04T04:47:33;5.75;;;3.60;;
31770;SDS011;18343;50.152;8.182;2022-07-04T04:50:00;6.25;;;3.97;;
31770;SDS011;18343;50.152;8.182;2022-07-04T04:52:28;7.53;;;3.63;;
31770;SDS011;18343;50.152;8.182;2022-07-04T04:54:56;6.13;;;3.60;;
31770;SDS011;18343;50.152;8.182;2022-07-04T04:57:23;5.95;;;3.40;;
31770;SDS011;18343;50.152;8.182;2022-07-04T04:59:52;8.43;;;3.60;;
31770;SDS011;18343;50.152;8.182;2022-07-04T05:02:19;5.13;;;3.10;;
31770;SDS011;18343;50.152;8.182;2022-07-04T05:04:47;5.57;;;3.17;;
31770;SDS011;18343;50.152;8.182;2022-07-04T05:07:14;5.97;;;3.55;;
31770;SDS011;18343;50.152;8.182;2022-07-04T05:09:42;6.28;;;3.80;;
31770;SDS011;18343;50.152;8.182;2022-07-04T05:12:09;11.30;;;3.22;;
31770;SDS011;18343;50.152;8.182;2022-07-04T05:14:36;7.28;;;3.90;;
31770;SDS011;18343;50.152;8.182;2022-07-04T05:17:05;9.25;;;4.30;;
31770;SDS011;18343;50.152;8.182;2022-07-04T05:19:33;8.98;;;3.88;;
31770;SDS011;18343;50.152;8.182;2022-07-04T05:22:00;7.07;;;3.67;;
31770;SDS011;18343;50.152;8.182;2022-07-04T05:24:27;7.10;;;3.63;;
31770;SDS011;18343;50.152;8.182;2022-07-04T05:26:55;5.25;;;3.85;;
31770;SDS011;18343;50.152;8.182;2022-07-04T05:29:25;6.68;;;3.80;;
31770;SDS011;18343;50.152;8.182;2022-07-04T05:31:52;6.13;;;3.67;;
31770;SDS011;18343;50.152;8.182;2022-07-04T05:34:21;9.43;;;3.72;;
31770;SDS011;18343;50.152;8.182;2022-07-04T05:36:48;6.22;;;4.00;;
31770;SDS011;18343;50.152;8.182;2022-07-04T05:39:15;4.50;;;3.03;;
31770;SDS011;18343;50.152;8.182;2022-07-04T05:41:43;7.68;;;3.88;;
31770;SDS011;18343;50.152;8.182;2022-07-04T05:44:10;4.43;;;2.70;;
31770;SDS011;18343;50.152;8.182;2022-07-04T05:46:38;3.00;;;2.63;;
31770;SDS011;18343;50.152;8.182;2022-07-04T05:49:05;6.10;;;2.50;;
31770;SDS011;18343;50.152;8.182;2022-07-04T05:51:35;6.82;;;2.42;;
31770;SDS011;18343;50.152;8.182;2022-07-04T05:54:04;6.18;;;2.38;;
31770;SDS011;18343;50.152;8.182;2022-07-04T05:56:31;7.10;;;2.45;;
31770;SDS011;18343;50.152;8.182;2022-07-04T05:58:59;8.75;;;2.20;;
31770;SDS011;18343;50.152;8.182;2022-07-04T06:01:26;4.18;;;2.05;;
31770;SDS011;18343;50.152;8.182;2022-07-04T06:03:53;2.88;;;2.10;;
31770;SDS011;18343;50.152;8.182;2022-07-04T06:06:20;4.05;;;2.28;;
31770;SDS011;18343;50.152;8.182;2022-07-04T06:08:49;4.10;;;2.22;;
31770;SDS011;18343;50.152;8.182;2022-07-04T06:11:17;3.55;;;1.80;;
31770;SDS011;18343;50.152;8.182;2022-07-04T06:13:44;3.65;;;2.10;;
31770;SDS011;18343;50.152;8.182;2022-07-04T06:16:11;3.63;;;1.70;;
31770;SDS011;18343;50.152;8.182;2022-07-04T06:18:39;7.82;;;2.22;;
31770;SDS011;18343;50.152;8.182;2022-07-04T06:21:06;4.93;;;2.05;;
31770;SDS011;18343;50.152;8.182;2022-07-04T06:23:33;7.20;;;2.33;;
31770;SDS011;18343;50.152;8.182;2022-07-04T06:26:02;6.35;;;2.38;;
31770;SDS011;18343;50.152;8.182;2022-07-04T06:28:30;4.82;;;1.98;;
31770;SDS011;18343;50.152;8.182;2022-07-04T06:30:58;5.72;;;2.00;;
31770;SDS011;18343;50.152;8.182;2022-07-04T06:33:25;4.53;;;1.90;;
31770;SDS011;18343;50.152;8.182;2022-07-04T06:35:52;6.55;;;2.72;;
31770;SDS011;18343;50.152;8.182;2022-07-04T06:38:21;4.93;;;1.67;;
31770;SDS011;18343;50.152;8.182;2022-07-04T06:40:51;3.22;;;1.80;;
31770;SDS011;18343;50.152;8.182;2022-07-04T06:43:23;5.40;;;1.85;;
31770;SDS011;18343;50.152;8.182;2022-07-04T06:45:50;6.15;;;1.85;;
31770;SDS011;18343;50.152;8.182;2022-07-04T06:48:19;5.53;;;1.90;;
31770;SDS011;18343;50.152;8.182;2022-07-04T06:50:48;5.13;;;1.75;;
31770;SDS011;18343;50.152;8.182;2022-07-04T06:53:15;3.45;;;1.52;;
31770;SDS011;18343;50.152;8.182;2022-07-04T06:55:46;5.22;;;1.65;;
31770;SDS011;18343;50.152;8.182;2022-07-04T06:58:13;3.05;;;1.42;;
31770;SDS011;18343;50.152;8.182;2022-07-04T07:00:42;2.20;;;1.38;;
31770;SDS011;18343;50.152;8.182;2022-07-04T07:03:11;8.32;;;1.70;;
31770;SDS011;18343;50.152;8.182;2022-07-04T07:05:39;4.82;;;1.20;;
31770;SDS011;18343;50.152;8.182;2022-07-04T07:08:07;4.32;;;1.48;;
31770;SDS011;18343;50.152;8.182;2022-07-04T07:10:37;2.90;;;1.20;;
31770;SDS011;18343;50.152;8.182;2022-07-04T07:13:04;4.32;;;1.23;;
31770;SDS011;18343;50.152;8.182;2022-07-04T07:15:33;5.53;;;1.27;;
31770;SDS011;18343;50.152;8.182;2022-07-04T07:18:02;3.15;;;1.08;;
31770;SDS011;18343;50.152;8.182;2022-07-04T07:20:33;4.68;;;1.27;;
31770;SDS011;18343;50.152;8.182;2022-07-04T07:23:01;4.18;;;1.25;;
31770;SDS011;18343;50.152;8.182;2022-07-04T07:25:29;2.78;;;1.27;;
31770;SDS011;18343;50.152;8.182;2022-07-04T07:27:59;2.70;;;1.25;;
31770;SDS011;18343;50.152;8.182;2022-07-04T07:30:26;6.60;;;1.23;;
31770;SDS011;18343;50.152;8.182;2022-07-04T07:32:54;4.20;;;1.05;;
31770;SDS011;18343;50.152;8.182;2022-07-04T07:35:23;2.75;;;1.20;;
31770;SDS011;18343;50.152;8.182;2022-07-04T07:37:51;3.38;;;1.13;;
31770;SDS011;18343;50.152;8.182;2022-07-04T07:40:18;2.67;;;0.82;;
31770;SDS011;18343;50.152;8.182;2022-07-04T07:42:46;3.30;;;0.68;;
31770;SDS011;18343;50.152;8.182;2022-07-04T07:45:14;3.80;;;1.17;;
31770;SDS011;18343;50.152;8.182;2022-07-04T07:47:41;3.53;;;1.00;;
31770;SDS011;18343;50.152;8.182;2022-07-04T07:50:09;7.05;;;1.40;;
31770;SDS011;18343;50.152;8.182;2022-07-04T07:52:38;2.35;;;0.82;;
31770;SDS011;18343;50.152;8.182;2022-07-04T07:55:06;1.48;;;0.70;;
31770;SDS011;18343;50.152;8.182;2022-07-04T07:57:37;3.33;;;1.05;;
31770;SDS011;18343;50.152;8.182;2022-07-04T08:00:04;4.50;;;1.10;;
31770;SDS011;18343;50.152;8.182;2022-07-04T08:02:34;3.10;;;1.17;;
31770;SDS011;18343;50.152;8.182;2022-07-04T08:05:21;2.47;;;0.85;;
31770;SDS011;18343;50.152;8.182;2022-07-04T08:07:49;5.72;;;0.95;;
31770;SDS011;18343;50.152;8.182;2022-07-04T08:10:17;4.70;;;0.70;;
31770;SDS011;18343;50.152;8.182;2022-07-04T08:12:44;0.98;;;0.75;;
31770;SDS011;18343;50.152;8.182;2022-07-04T08:15:15;2.88;;;0.73;;
31770;SDS011;18343;50.152;8.182;2022-07-04T08:17:43;2.65;;;0.80;;
31770;SDS011;18343;50.152;8.182;2022-07-04T08:20:11;1.90;;;0.93;;
31770;SDS011;18343;50.152;8.182;2022-07-04T08:22:39;5.53;;;1.00;;
31770;SDS011;18343;50.152;8.182;2022-07-04T08:25:09;1.48;;;0.77;;
31770;SDS011;18343;50.152;8.182;2022-07-04T08:27:39;1.98;;;0.80;;
31770;SDS011;18343;50.152;8.182;2022-07-04T08:30:06;2.42;;;0.80;;
31770;SDS011;18343;50.152;8.182;2022-07-04T08:32:34;2.92;;;1.05;;
31770;SDS011;18343;50.152;8.182;2022-07-04T08:35:02;1.85;;;0.93;;
31770;SDS011;18343;50.152;8.182;2022-07-04T08:37:31;1.40;;;0.80;;
31770;SDS011;18343;50.152;8.182;2022-07-04T08:39:58;2.88;;;0.77;;
31770;SDS011;18343;50.152;8.182;2022-07-04T08:42:28;1.23;;;0.60;;
31770;SDS011;18343;50.152;8.182;2022-07-04T08:45:01;3.53;;;0.68;;
31770;SDS011;18343;50.152;8.182;2022-07-04T08:47:33;4.38;;;1.05;;
31770;SDS011;18343;50.152;8.182;2022-07-04T08:50:06;4.28;;;1.00;;
31770;SDS011;18343;50.152;8.182;2022-07-04T08:52:39;2.33;;;0.82;;
31770;SDS011;18343;50.152;8.182;2022-07-04T08:55:09;8.25;;;2.35;;
31770;SDS011;18343;50.152;8.182;2022-07-04T08:57:57;4.00;;;0.95;;
31770;SDS011;18343;50.152;8.182;2022-07-04T09:00:43;2.33;;;0.60;;
31770;SDS011;18343;50.152;8.182;2022-07-04T09:03:10;3.72;;;0.80;;
31770;SDS011;18343;50.152;8.182;2022-07-04T09:05:39;5.80;;;0.80;;
31770;SDS011;18343;50.152;8.182;2022-07-04T09:08:06;2.70;;;0.75;;
31770;SDS011;18343;50.152;8.182;2022-07-04T09:10:34;0.73;;;0.60;;
31770;SDS011;18343;50.152;8.182;2022-07-04T09:13:03;2.30;;;0.75;;
31770;SDS011;18343;50.152;8.182;2022-07-04T09:15:33;1.77;;;0.60;;
31770;SDS011;18343;50.152;8.182;2022-07-04T09:18:01;1.42;;;0.60;;
31770;SDS011;18343;50.152;8.182;2022-07-04T09:20:30;3.97;;;0.88;;
31770;SDS011;18343;50.152;8.182;2022-07-04T09:22:58;5.68;;;0.90;;
31770;SDS011;18343;50.152;8.182;2022-07-04T09:25:26;3.53;;;0.68;;
31770;SDS011;18343;50.152;8.182;2022-07-04T09:27:54;4.45;;;0.70;;
31770;SDS011;18343;50.152;8.182;2022-07-04T09:30:25;2.50;;;1.13;;
31770;SDS011;18343;50.152;8.182;2022-07-04T09:32:55;3.30;;;1.10;;
31770;SDS011;18343;50.152;8.182;2022-07-04T09:35:26;2.58;;;0.75;;
31770;SDS011;18343;50.152;8.182;2022-07-04T09:37:59;2.25;;;0.70;;
31770;SDS011;18343;50.152;8.182;2022-07-04T09:40:32;3.40;;;0.70;;
31770;SDS011;18343;50.152;8.182;2022-07-04T09:43:22;3.72;;;0.50;;
31770;SDS011;18343;50.152;8.182;2022-07-04T09:45:55;1.92;;;1.00;;
31770;SDS011;18343;50.152;8.182;2022-07-04T09:48:25;1.50;;;0.70;;
31770;SDS011;18343;50.152;8.182;2022-07-04T09:50:53;4.15;;;0.80;;
31770;SDS011;18343;50.152;8.182;2022-07-04T09:53:24;1.13;;;0.55;;
31770;SDS011;18343;50.152;8.182;2022-07-04T09:55:53;1.48;;;0.70;;
31770;SDS011;18343;50.152;8.182;2022-07-04T09:58:21;1.15;;;0.50;;
31770;SDS011;18343;50.152;8.182;2022-07-04T10:00:48;3.15;;;0.73;;
31770;SDS011;18343;50.152;8.182;2022-07-04T10:03:18;2.35;;;0.70;;
31770;SDS011;18343;50.152;8.182;2022-07-04T10:06:01;2.60;;;0.70;;
31770;SDS011;18343;50.152;8.182;2022-07-04T10:08:30;1.00;;;0.52;;
31770;SDS011;18343;50.152;8.182;2022-07-04T10:10:59;3.17;;;0.77;;
31770;SDS011;18343;50.152;8.182;2022-07-04T10:13:28;2.08;;;0.43;;
31770;SDS011;18343;50.152;8.182;2022-07-04T10:15:57;0.75;;;0.35;;
31770;SDS011;18343;50.152;8.182;2022-07-04T10:18:31;1.65;;;0.65;;
31770;SDS011;18343;50.152;8.182;2022-07-04T10:21:00;2.90;;;0.95;;
31770;SDS011;18343;50.152;8.182;2022-07-04T10:23:28;1.65;;;0.50;;
31770;SDS011;18343;50.152;8.182;2022-07-04T10:25:57;0.90;;;0.40;;
31770;SDS011;18343;50.152;8.182;2022-07-04T10:28:25;2.63;;;0.60;;
31770;SDS011;18343;50.152;8.182;2022-07-04T10:30:53;2.67;;;0.60;;
31770;SDS011;18343;50.152;8.182;2022-07-04T10:33:23;2.40;;;0.60;;
31770;SDS011;18343;50.152;8.182;2022-07-04T10:35:54;4.47;;;0.60;;
31770;SDS011;18343;50.152;8.182;2022-07-04T10:38:34;1.27;;;0.60;;
31770;SDS011;18343;50.152;8.182;2022-07-04T10:41:13;2.10;;;0.60;;
31770;SDS011;18343;50.152;8.182;2022-07-04T10:46:48;0.95;;;0.45;;
31770;SDS011;18343;50.152;8.182;2022-07-04T10:49:26;2.53;;;0.57;;
31770;SDS011;18343;50.152;8.182;2022-07-04T10:52:01;2.45;;;0.65;;
31770;SDS011;18343;50.152;8.182;2022-07-04T10:54:48;0.50;;;0.50;;
31770;SDS011;18343;50.152;8.182;2022-07-04T10:57:17;3.50;;;0.75;;
31770;SDS011;18343;50.152;8.182;2022-07-04T11:02:34;1.23;;;0.47;;
31770;SDS011;18343;50.152;8.182;2022-07-04T11:05:06;2.28;;;0.70;;
31770;SDS011;18343;50.152;8.182;2022-07-04T11:10:36;2.75;;;0.60;;
31770;SDS011;18343;50.152;8.182;2022-07-04T11:15:58;2.10;;;0.50;;
31770;SDS011;18343;50.152;8.182;2022-07-04T11:18:28;1.55;;;0.55;;
31770;SDS011;18343;50.152;8.182;2022-07-04T11:20:56;2.05;;;0.60;;
31770;SDS011;18343;50.152;8.182;2022-07-04T11:23:25;1.27;;;0.60;;
31770;SDS011;18343;50.152;8.182;2022-07-04T11:25:52;0.90;;;0.50;;
31770;SDS011;18343;50.152;8.182;2022-07-04T11:28:22;1.38;;;0.40;;
31770;SDS011;18343;50.152;8.182;2022-07-04T11:30:51;1.63;;;0.57;;
31770;SDS011;18343;50.152;8.182;2022-07-04T11:33:23;1.33;;;0.45;;
31770;SDS011;18343;50.152;8.182;2022-07-04T11:36:01;0.73;;;0.45;;
31770;SDS011;18343;50.152;8.182;2022-07-04T11:38:44;3.60;;;1.35;;
31770;SDS011;18343;50.152;8.182;2022-07-04T11:41:21;2.00;;;0.65;;
31770;SDS011;18343;50.152;8.182;2022-07-04T11:44:09;2.75;;;0.50;;
31770;SDS011;18343;50.152;8.182;2022-07-04T11:49:46;4.07;;;0.47;;
31770;SDS011;18343;50.152;8.182;2022-07-04T11:52:16;1.55;;;0.98;;
31770;SDS011;18343;50.152;8.182;2022-07-04T11:54:48;2.28;;;0.70;;
31770;SDS011;18343;50.152;8.182;2022-07-04T11:57:18;1.13;;;0.40;;
31770;SDS011;18343;50.152;8.182;2022-07-04T11:59:52;0.90;;;0.43;;
31770;SDS011;18343;50.152;8.182;2022-07-04T12:02:52;0.95;;;0.50;;
31770;SDS011;18343;50.152;8.182;2022-07-04T12:05:25;1.35;;;0.50;;
31770;SDS011;18343;50.152;8.182;2022-07-04T12:07:53;1.63;;;0.40;;
31770;SDS011;18343;50.152;8.182;2022-07-04T12:10:23;4.25;;;0.77;;
31770;SDS011;18343;50.152;8.182;2022-07-04T12:12:53;1.80;;;0.38;;
31770;SDS011;18343;50.152;8.182;2022-07-04T12:15:22;1.80;;;0.40;;
31770;SDS011;18343;50.152;8.182;2022-07-04T12:18:01;1.20;;;0.50;;
31770;SDS011;18343;50.152;8.182;2022-07-04T12:20:31;6.13;;;1.50;;
31770;SDS011;18343;50.152;8.182;2022-07-04T12:22:59;2.08;;;0.80;;
31770;SDS011;18343;50.152;8.182;2022-07-04T12:25:29;1.73;;;0.55;;
31770;SDS011;18343;50.152;8.182;2022-07-04T12:28:00;0.40;;;0.40;;
31770;SDS011;18343;50.152;8.182;2022-07-04T12:30:30;1.33;;;0.50;;
31770;SDS011;18343;50.152;8.182;2022-07-04T12:33:01;1.92;;;0.70;;
31770;SDS011;18343;50.152;8.182;2022-07-04T12:35:33;1.08;;;0.40;;
31770;SDS011;18343;50.152;8.182;2022-07-04T12:38:07;3.95;;;0.80;;
31770;SDS011;18343;50.152;8.182;2022-07-04T12:40:48;0.95;;;0.40;;
31770;SDS011;18343;50.152;8.182;2022-07-04T12:43:19;0.70;;;0.30;;
31770;SDS011;18343;50.152;8.182;2022-07-04T12:45:47;1.05;;;0.55;;
31770;SDS011;18343;50.152;8.182;2022-07-04T12:48:21;1.20;;;0.40;;
31770;SDS011;18343;50.152;8.182;2022-07-04T12:50:51;1.90;;;0.40;;
31770;SDS011;18343;50.152;8.182;2022-07-04T12:53:20;0.65;;;0.30;;
31770;SDS011;18343;50.152;8.182;2022-07-04T12:56:03;1.73;;;0.40;;
31770;SDS011;18343;50.152;8.182;2022-07-04T12:58:31;1.27;;;0.40;;
31770;SDS011;18343;50.152;8.182;2022-07-04T13:01:01;0.70;;;0.35;;
31770;SDS011;18343;50.152;8.182;2022-07-04T13:03:29;2.30;;;0.82;;
31770;SDS011;18343;50.152;8.182;2022-07-04T13:05:57;0.60;;;0.60;;
31770;SDS011;18343;50.152;8.182;2022-07-04T13:08:24;3.95;;;0.77;;
31770;SDS011;18343;50.152;8.182;2022-07-04T13:10:51;2.42;;;0.60;;
31770;SDS011;18343;50.152;8.182;2022-07-04T13:13:43;2.55;;;0.50;;
31770;SDS011;18343;50.152;8.182;2022-07-04T13:16:11;1.58;;;0.40;;
31770;SDS011;18343;50.152;8.182;2022-07-04T13:18:40;0.95;;;0.60;;
31770;SDS011;18343;50.152;8.182;2022-07-04T13:21:08;1.40;;;0.40;;
31770;SDS011;18343;50.152;8.182;2022-07-04T13:23:35;0.98;;;0.50;;
31770;SDS011;18343;50.152;8.182;2022-07-04T13:26:04;0.70;;;0.30;;
31770;SDS011;18343;50.152;8.182;2022-07-04T13:28:31;1.58;;;0.85;;
31770;SDS011;18343;50.152;8.182;2022-07-04T13:31:00;3.05;;;0.60;;
31770;SDS011;18343;50.152;8.182;2022-07-04T13:33:28;2.78;;;0.63;;
31770;SDS011;18343;50.152;8.182;2022-07-04T13:35:55;1.10;;;0.45;;
31770;SDS011;18343;50.152;8.182;2022-07-04T13:38:23;2.80;;;0.68;;
31770;SDS011;18343;50.152;8.182;2022-07-04T13:40:51;2.90;;;0.52;;
31770;SDS011;18343;50.152;8.182;2022-07-04T13:43:20;1.55;;;0.50;;
31770;SDS011;18343;50.152;8.182;2022-07-04T13:45:53;3.20;;;0.43;;
31770;SDS011;18343;50.152;8.182;2022-07-04T13:48:23;2.65;;;0.65;;
31770;SDS011;18343;50.152;8.182;2022-07-04T13:50:51;1.05;;;0.47;;
31770;SDS011;18343;50.152;8.182;2022-07-04T13:53:19;1.73;;;0.40;;
31770;SDS011;18343;50.152;8.182;2022-07-04T13:55:46;1.27;;;0.60;;
31770;SDS011;18343;50.152;8.182;2022-07-04T13:58:14;1.50;;;0.70;;
31770;SDS011;18343;50.152;8.182;2022-07-04T14:03:24;2.65;;;0.68;;
31770;SDS011;18343;50.152;8.182;2022-07-04T14:05:51;6.60;;;0.80;;
31770;SDS011;18343;50.152;8.182;2022-07-04T14:08:19;1.08;;;0.40;;
31770;SDS011;18343;50.152;8.182;2022-07-04T14:10:46;0.68;;;0.60;;
31770;SDS011;18343;50.152;8.182;2022-07-04T14:13:14;0.90;;;0.30;;
31770;SDS011;18343;50.152;8.182;2022-07-04T14:15:41;3.75;;;0.80;;
31770;SDS011;18343;50.152;8.182;2022-07-04T14:18:08;0.47;;;0.38;;
31770;SDS011;18343;50.152;8.182;2022-07-04T14:20:40;1.13;;;0.50;;
31770;SDS011;18343;50.152;8.182;2022-07-04T14:23:08;1.52;;;0.60;;
31770;SDS011;18343;50.152;8.182;2022-07-04T14:25:36;2.13;;;0.40;;
31770;SDS011;18343;50.152;8.182;2022-07-04T14:28:05;16.08;;;0.90;;
31770;SDS011;18343;50.152;8.182;2022-07-04T14:30:32;2.05;;;0.50;;
31770;SDS011;18343;50.152;8.182;2022-07-04T14:32:59;3.83;;;0.50;;
31770;SDS011;18343;50.152;8.182;2022-07-04T14:35:27;4.22;;;0.60;;
31770;SDS011;18343;50.152;8.182;2022-07-04T14:37:56;4.05;;;0.45;;
31770;SDS011;18343;50.152;8.182;2022-07-04T14:40:24;1.67;;;0.57;;
31770;SDS011;18343;50.152;8.182;2022-07-04T14:42:52;2.50;;;0.30;;
31770;SDS011;18343;50.152;8.182;2022-07-04T14:45:19;3.25;;;0.68;;
31770;SDS011;18343;50.152;8.182;2022-07-04T14:47:47;1.58;;;0.55;;
31770;SDS011;18343;50.152;8.182;2022-07-04T14:50:14;10.23;;;1.05;;
31770;SDS011;18343;50.152;8.182;2022-07-04T14:52:41;5.88;;;0.60;;
31770;SDS011;18343;50.152;8.182;2022-07-04T14:55:10;2.25;;;0.60;;
31770;SDS011;18343;50.152;8.182;2022-07-04T14:57:39;2.97;;;0.75;;
31770;SDS011;18343;50.152;8.182;2022-07-04T15:00:07;3.13;;;0.50;;
31770;SDS011;18343;50.152;8.182;2022-07-04T15:02:36;7.55;;;0.80;;
31770;SDS011;18343;50.152;8.182;2022-07-04T15:05:03;1.80;;;0.50;;
31770;SDS011;18343;50.152;8.182;2022-07-04T15:07:32;3.22;;;1.00;;
31770;SDS011;18343;50.152;8.182;2022-07-04T15:09:59;1.70;;;0.40;;
31770;SDS011;18343;50.152;8.182;2022-07-04T15:12:28;2.38;;;0.75;;
31770;SDS011;18343;50.152;8.182;2022-07-04T15:14:55;2.25;;;0.60;;
31770;SDS011;18343;50.152;8.182;2022-07-04T15:17:24;1.85;;;0.55;;
31770;SDS011;18343;50.152;8.182;2022-07-04T15:19:51;4.35;;;0.70;;